createdAt,value
2022-10-11T04:05:48.504Z,100.00
2022-10-11T04:08:51.463Z,100.00
2022-10-11T04:11:53.844Z,100.00
2022-10-11T04:14:56.547Z,100.00
2022-10-11T04:17:59.034Z,100.00
2022-10-11T04:21:01.842Z,100.00
2022-10-11T04:24:04.570Z,100.00
2022-10-11T04:27:07.328Z,100.00
2022-10-11T04:30:11.264Z,99.16
2022-10-11T04:33:14.422Z,98.46
2022-10-11T04:36:16.837Z,98.55
2022-10-11T04:39:19.563Z,99.13
2022-10-11T04:42:22.171Z,99.53
2022-10-11T04:45:24.917Z,100.00
2022-10-11T04:48:27.444Z,100.00
2022-10-11T04:51:30.396Z,100.00
2022-10-11T04:54:32.952Z,100.00
2022-10-11T04:57:35.725Z,100.00
2022-10-11T05:00:38.169Z,100.00
2022-10-11T05:03:41.159Z,100.00
2022-10-11T05:06:43.642Z,100.00
2022-10-11T05:09:46.369Z,100.00
2022-10-11T05:12:48.803Z,100.00
2022-10-11T05:15:51.791Z,100.00
2022-10-11T05:18:54.292Z,100.00
2022-10-11T05:21:57.439Z,98.93
2022-10-11T05:24:59.921Z,99.38
2022-10-11T05:28:02.647Z,97.99
2022-10-11T05:31:05.750Z,97.14
2022-10-11T05:34:08.561Z,97.52
2022-10-11T05:37:11.045Z,95.66
2022-10-11T05:40:13.834Z,94.33
2022-10-11T05:43:16.422Z,94.27
2022-10-11T05:46:19.230Z,92.56
2022-10-11T05:49:21.766Z,92.08
2022-10-11T05:52:24.586Z,90.94
2022-10-11T05:55:27.541Z,90.99
2022-10-11T05:58:31.150Z,92.86
2022-10-11T06:01:33.764Z,92.95
2022-10-11T06:04:37.209Z,92.92
2022-10-11T06:07:39.840Z,90.65
2022-10-11T06:10:42.671Z,90.58
2022-10-11T06:13:45.150Z,90.14
2022-10-11T06:16:47.839Z,89.25
2022-10-11T06:19:51.330Z,87.48
2022-10-11T06:22:54.164Z,86.52
2022-10-11T06:26:02.209Z,85.66
2022-10-11T06:29:05.916Z,84.91
2022-10-11T06:32:08.346Z,82.48
2022-10-11T06:35:11.139Z,82.13
2022-10-11T06:38:13.745Z,81.96
2022-10-11T06:41:18.672Z,81.47
2022-10-11T06:44:21.092Z,82.51
2022-10-11T06:47:23.848Z,82.48
2022-10-11T06:50:47.522Z,82.91
2022-10-11T06:53:50.856Z,82.05
2022-10-11T06:56:53.353Z,83.20
2022-10-11T06:59:56.208Z,82.49
2022-10-11T07:02:58.738Z,81.99
2022-10-11T07:06:03.758Z,82.21
2022-10-11T07:09:07.922Z,80.88
2022-10-11T07:12:10.710Z,79.69
2022-10-11T07:15:13.161Z,79.07
2022-10-11T07:18:15.922Z,78.65
2022-10-11T07:21:18.468Z,78.70
2022-10-11T07:24:21.251Z,77.16
2022-10-11T07:27:23.799Z,77.20
2022-10-11T07:30:26.680Z,76.47
2022-10-11T07:33:29.089Z,75.71
2022-10-11T07:36:32.031Z,75.24
2022-10-11T07:39:34.872Z,75.36
2022-10-11T07:42:37.999Z,74.87
2022-10-11T07:45:41.859Z,71.59
2022-10-11T07:48:44.761Z,70.81
2022-10-11T07:51:47.330Z,69.31
2022-10-11T07:54:50.091Z,68.50
2022-10-11T07:57:52.588Z,66.89
2022-10-11T08:00:55.688Z,67.53
2022-10-11T08:03:59.156Z,67.27
2022-10-11T08:07:01.584Z,68.20
2022-10-11T08:10:06.197Z,69.13
2022-10-11T08:13:08.729Z,69.57
2022-10-11T08:16:12.736Z,68.30
2022-10-11T08:19:16.187Z,68.76
2022-10-11T08:22:18.999Z,68.02
2022-10-11T08:25:21.488Z,69.14
2022-10-11T08:28:24.724Z,68.27
2022-10-11T08:31:27.172Z,68.39
2022-10-11T08:34:29.859Z,67.03
2022-10-11T08:37:32.261Z,66.52
2022-10-11T08:40:35.551Z,65.68
2022-10-11T08:44:06.114Z,65.50
2022-10-11T08:47:21.101Z,65.43
2022-10-11T08:50:24.177Z,64.55
2022-10-11T08:53:51.720Z,64.69
2022-10-11T08:56:54.368Z,65.05
2022-10-11T09:00:05.132Z,64.16
2022-10-11T09:03:09.339Z,62.94
2022-10-11T09:06:16.265Z,64.24
2022-10-11T09:09:21.861Z,63.91
2022-10-11T09:13:04.547Z,64.52
2022-10-11T09:16:17.695Z,65.98
2022-10-11T09:19:51.570Z,67.45
2022-10-11T09:23:14.107Z,66.75
2022-10-11T09:26:31.161Z,65.19
2022-10-11T09:30:02.552Z,64.90
2022-10-11T09:33:33.193Z,62.92
2022-10-11T09:37:00.126Z,64.48
2022-10-11T09:40:12.000Z,61.34
2022-10-11T09:43:14.569Z,61.28
2022-10-11T09:46:31.747Z,61.03
2022-10-11T09:49:42.769Z,60.33
2022-10-11T09:53:05.131Z,59.17
2022-10-11T09:56:08.322Z,58.78
2022-10-11T09:59:35.140Z,58.64
2022-10-11T10:02:47.028Z,57.85
2022-10-11T10:06:22.110Z,58.30
2022-10-11T10:09:30.454Z,58.25
2022-10-11T10:12:33.247Z,57.74
2022-10-11T10:15:38.105Z,56.62
2022-10-11T10:18:59.667Z,56.36
2022-10-11T10:22:02.181Z,55.87
2022-10-11T10:25:08.117Z,55.30
2022-10-11T10:28:21.009Z,53.65
2022-10-11T10:31:29.746Z,52.54
2022-10-11T10:34:36.426Z,53.07
2022-10-11T10:37:44.041Z,51.86
2022-10-11T10:40:56.727Z,51.92
2022-10-11T10:44:00.799Z,51.29
2022-10-11T10:47:20.831Z,50.92
2022-10-11T10:50:45.641Z,53.41
2022-10-11T10:53:58.457Z,53.23
2022-10-11T10:57:04.389Z,53.08
2022-10-11T11:00:19.837Z,56.10
2022-10-11T11:03:34.027Z,52.11
2022-10-11T11:06:48.835Z,52.55
2022-10-11T11:09:59.732Z,52.46
2022-10-11T11:13:04.847Z,52.39
2022-10-11T11:16:18.694Z,49.00
2022-10-11T11:19:38.419Z,47.58
2022-10-11T11:22:47.695Z,48.50
2022-10-11T11:26:15.635Z,50.61
2022-10-11T11:29:43.604Z,50.33
2022-10-11T11:32:52.017Z,48.31
2022-10-11T11:36:01.389Z,50.14
2022-10-11T11:39:07.065Z,49.12
2022-10-11T11:42:18.041Z,46.44
2022-10-11T11:45:46.831Z,47.70
2022-10-11T11:48:52.778Z,48.39
2022-10-11T11:51:56.653Z,45.15
2022-10-11T11:55:16.689Z,42.12
2022-10-11T11:58:43.992Z,41.81
2022-10-11T12:02:11.741Z,45.39
2022-10-11T12:05:18.707Z,45.02
2022-10-11T12:08:27.584Z,43.30
2022-10-11T12:11:42.042Z,42.63
2022-10-11T12:14:44.784Z,41.69
2022-10-11T12:17:53.232Z,43.40
2022-10-11T12:21:06.122Z,46.32
2022-10-11T12:24:31.542Z,42.34
2022-10-11T12:27:43.366Z,37.28
2022-10-11T12:30:55.556Z,35.44
2022-10-11T12:34:01.118Z,35.45
2022-10-11T12:37:27.072Z,36.38
2022-10-11T12:40:45.866Z,38.02
2022-10-11T12:43:48.639Z,41.17
2022-10-11T12:46:51.058Z,42.51
2022-10-11T12:49:59.383Z,42.24
2022-10-11T12:53:18.248Z,43.93
2022-10-11T12:56:44.890Z,43.50
2022-10-11T12:59:47.471Z,44.13
2022-10-11T13:02:50.394Z,46.80
2022-10-11T13:06:01.331Z,46.72
2022-10-11T13:09:15.760Z,46.91
2022-10-11T13:12:21.839Z,48.78
2022-10-11T13:15:24.893Z,49.91
2022-10-11T13:18:27.378Z,50.60
2022-10-11T13:21:34.624Z,50.74
2022-10-11T13:24:39.756Z,50.63
2022-10-11T13:27:43.413Z,51.83
2022-10-11T13:30:53.226Z,50.60
2022-10-11T13:34:17.582Z,50.83
2022-10-11T13:37:25.575Z,51.44
2022-10-11T13:40:29.537Z,51.02
2022-10-11T13:43:32.841Z,51.97
2022-10-11T13:46:37.611Z,53.40
2022-10-11T13:49:45.814Z,53.04
2022-10-11T13:52:57.325Z,54.36
2022-10-11T13:56:04.365Z,54.02
2022-10-11T13:59:07.209Z,55.12
2022-10-11T14:02:20.215Z,55.30
2022-10-11T14:05:30.349Z,57.28
2022-10-11T14:08:42.275Z,56.87
2022-10-11T14:11:45.520Z,57.94
2022-10-11T14:14:48.110Z,58.53
2022-10-11T14:17:51.504Z,58.89
2022-10-11T14:20:54.337Z,58.74
2022-10-11T14:24:00.484Z,60.66
2022-10-11T14:27:05.958Z,60.95
2022-10-11T14:30:27.437Z,60.08
2022-10-11T14:33:30.184Z,59.81
2022-10-11T14:36:35.076Z,60.42
2022-10-11T14:39:37.787Z,61.12
2022-10-11T14:42:41.893Z,61.45
2022-10-11T14:45:44.390Z,61.75
2022-10-11T14:48:55.660Z,62.46
2022-10-11T14:51:59.341Z,62.73
2022-10-11T14:55:02.238Z,62.83
2022-10-11T14:58:06.095Z,63.35
2022-10-11T15:01:13.954Z,63.88
2022-10-11T15:04:16.627Z,64.39
2022-10-11T15:07:19.414Z,64.49
2022-10-11T15:10:27.454Z,64.54
2022-10-11T15:13:30.212Z,64.74
2022-10-11T15:16:33.397Z,63.65
2022-10-11T15:19:36.564Z,63.67
2022-10-11T15:22:39.102Z,63.94
2022-10-11T15:25:42.596Z,64.14
2022-10-11T15:28:45.940Z,64.20
2022-10-11T15:31:49.505Z,64.34
2022-10-11T15:34:52.023Z,65.00
2022-10-11T15:37:57.494Z,64.42
2022-10-11T15:41:00.222Z,64.79
2022-10-11T15:44:02.916Z,65.01
2022-10-11T15:47:05.412Z,65.80
2022-10-11T15:50:34.038Z,66.33
2022-10-11T15:53:36.837Z,65.89
